createdAt,value
2022-08-30T00:00:06.820Z,17.90
2022-08-30T00:02:55.359Z,17.90
2022-08-30T00:05:24.414Z,17.90
2022-08-30T00:07:55.794Z,17.90
2022-08-30T00:10:24.712Z,17.90
2022-08-30T00:12:57.129Z,17.90
2022-08-30T00:15:26.158Z,17.90
2022-08-30T00:17:54.784Z,17.90
2022-08-30T00:20:25.793Z,17.90
2022-08-30T00:22:54.053Z,17.90
2022-08-30T00:25:23.117Z,17.90
2022-08-30T00:27:52.131Z,17.90
2022-08-30T00:30:21.047Z,17.90
2022-08-30T00:32:49.382Z,17.80
2022-08-30T00:35:18.880Z,17.80
2022-08-30T00:37:50.297Z,17.80
2022-08-30T00:40:27.256Z,17.80
2022-08-30T00:43:00.008Z,17.80
2022-08-30T00:45:38.494Z,17.80
2022-08-30T00:48:14.715Z,17.80
2022-08-30T00:50:45.230Z,17.80
2022-08-30T00:53:18.742Z,17.80
2022-08-30T00:55:56.762Z,17.80
2022-08-30T00:58:30.151Z,17.70
2022-08-30T01:01:02.233Z,17.70
2022-08-30T01:03:30.888Z,17.80
2022-08-30T01:06:00.577Z,17.70
2022-08-30T01:08:29.278Z,17.70
2022-08-30T01:10:58.163Z,17.70
2022-08-30T01:13:27.453Z,17.70
2022-08-30T01:15:55.987Z,17.70
2022-08-30T01:18:25.494Z,17.60
2022-08-30T01:21:09.943Z,17.60
2022-08-30T01:23:39.655Z,17.60
2022-08-30T01:26:10.809Z,17.60
2022-08-30T01:28:40.149Z,17.60
2022-08-30T01:31:09.020Z,17.50
2022-08-30T01:33:40.736Z,17.50
2022-08-30T01:36:13.538Z,17.50
2022-08-30T01:38:53.359Z,17.50
2022-08-30T01:41:23.900Z,17.50
2022-08-30T01:43:54.024Z,17.50
2022-08-30T01:46:24.814Z,17.40
2022-08-30T01:48:55.023Z,17.50
2022-08-30T01:51:27.758Z,17.40
2022-08-30T01:53:57.317Z,17.40
2022-08-30T01:56:26.457Z,17.40
2022-08-30T01:59:01.850Z,17.40
2022-08-30T02:01:46.659Z,17.40
2022-08-30T02:04:15.360Z,17.30
2022-08-30T02:06:44.967Z,17.30
2022-08-30T02:09:14.051Z,17.30
2022-08-30T02:11:42.301Z,17.30
2022-08-30T02:14:12.923Z,17.30
2022-08-30T02:16:42.009Z,17.30
2022-08-30T02:19:10.526Z,17.30
2022-08-30T02:21:41.462Z,17.40
2022-08-30T02:24:10.423Z,17.30
2022-08-30T02:26:41.100Z,17.40
2022-08-30T02:29:09.623Z,17.40
2022-08-30T02:31:38.390Z,17.40
2022-08-30T02:34:06.894Z,17.40
2022-08-30T02:36:35.109Z,17.40
2022-08-30T02:39:03.807Z,17.40
2022-08-30T02:41:32.354Z,17.40
2022-08-30T02:44:00.904Z,17.50
2022-08-30T02:46:29.608Z,17.50
2022-08-30T02:49:29.927Z,17.50
2022-08-30T02:51:55.420Z,17.50
2022-08-30T02:54:23.861Z,17.60
2022-08-30T02:56:52.597Z,17.60
2022-08-30T02:59:20.973Z,17.60
2022-08-30T03:01:49.561Z,17.60
2022-08-30T03:04:18.399Z,17.60
2022-08-30T03:06:57.173Z,17.60
2022-08-30T03:09:26.762Z,17.60
2022-08-30T03:11:55.026Z,17.70
2022-08-30T03:14:23.411Z,17.60
2022-08-30T03:16:52.517Z,17.70
2022-08-30T03:19:21.374Z,17.60
2022-08-30T03:21:50.775Z,17.60
2022-08-30T03:24:19.553Z,17.60
2022-08-30T03:26:47.875Z,17.60
2022-08-30T03:29:19.698Z,17.60
2022-08-30T03:31:52.923Z,17.60
2022-08-30T03:34:24.055Z,17.60
2022-08-30T03:36:57.561Z,17.60
2022-08-30T03:39:25.850Z,17.60
2022-08-30T03:41:54.729Z,17.60
2022-08-30T03:44:23.644Z,17.60
2022-08-30T03:46:52.572Z,17.60
2022-08-30T03:49:21.708Z,17.60
2022-08-30T03:51:51.058Z,17.70
2022-08-30T03:54:19.716Z,17.60
2022-08-30T03:56:47.987Z,17.70
2022-08-30T03:59:16.688Z,17.70
2022-08-30T04:01:51.021Z,17.70
2022-08-30T04:04:23.790Z,17.70
2022-08-30T04:06:52.144Z,17.70
2022-08-30T04:09:20.820Z,17.70
2022-08-30T04:11:51.976Z,17.70
2022-08-30T04:14:22.890Z,17.80
2022-08-30T04:16:51.721Z,17.80
2022-08-30T04:19:20.263Z,17.80
2022-08-30T04:21:49.173Z,17.80
2022-08-30T04:24:18.355Z,17.80
2022-08-30T04:26:46.698Z,17.80
2022-08-30T04:29:20.915Z,17.80
2022-08-30T04:31:49.581Z,17.80
2022-08-30T04:34:18.008Z,17.90
2022-08-30T04:36:48.105Z,17.90
2022-08-30T04:39:18.014Z,17.90
2022-08-30T04:41:46.588Z,17.90
2022-08-30T04:44:19.476Z,17.90
2022-08-30T04:46:48.685Z,18.00
2022-08-30T04:49:17.200Z,18.00
2022-08-30T04:51:45.879Z,18.10
2022-08-30T04:54:14.614Z,18.10
2022-08-30T04:56:44.124Z,18.20
2022-08-30T04:59:12.844Z,18.20
2022-08-30T05:01:45.472Z,18.20
2022-08-30T05:04:23.142Z,18.30
2022-08-30T05:06:51.871Z,18.40
2022-08-30T05:09:22.061Z,18.40
2022-08-30T05:11:50.416Z,18.40
2022-08-30T05:14:19.236Z,18.40
2022-08-30T05:16:47.933Z,18.50
2022-08-30T05:19:16.301Z,18.50
2022-08-30T05:21:47.169Z,18.50
2022-08-30T05:24:15.288Z,18.50
2022-08-30T05:26:43.613Z,18.60
2022-08-30T05:29:12.468Z,18.50
2022-08-30T05:31:42.234Z,18.60
2022-08-30T05:34:11.336Z,18.60
2022-08-30T05:36:41.386Z,18.60
2022-08-30T05:39:10.932Z,18.70
2022-08-30T05:41:43.403Z,18.70
2022-08-30T05:44:12.681Z,18.70
2022-08-30T05:46:46.237Z,18.70
2022-08-30T05:49:15.856Z,18.80
2022-08-30T05:51:44.586Z,18.80
2022-08-30T05:54:13.969Z,18.90
2022-08-30T05:56:45.610Z,18.90
2022-08-30T05:59:14.221Z,19.00
2022-08-30T06:01:44.460Z,19.00
2022-08-30T06:04:15.194Z,19.10
2022-08-30T06:06:44.394Z,19.20
2022-08-30T06:09:13.758Z,19.20
2022-08-30T06:11:43.880Z,19.30
2022-08-30T06:14:12.585Z,19.30
2022-08-30T06:16:43.223Z,19.30
2022-08-30T06:19:15.634Z,19.30
2022-08-30T06:21:45.412Z,19.30
2022-08-30T06:24:17.044Z,19.30
2022-08-30T06:26:56.361Z,19.30
2022-08-30T06:29:25.154Z,19.40
2022-08-30T06:31:57.815Z,19.40
2022-08-30T06:34:27.831Z,19.40
2022-08-30T06:36:56.583Z,19.50
2022-08-30T06:39:24.905Z,19.50
2022-08-30T06:41:55.959Z,19.60
2022-08-30T06:44:34.825Z,19.60
2022-08-30T06:47:03.522Z,19.50
2022-08-30T06:49:32.002Z,19.50
2022-08-30T06:52:01.146Z,19.60
2022-08-30T06:54:31.973Z,19.60
2022-08-30T06:57:00.100Z,19.70
2022-08-30T06:59:29.257Z,19.70
2022-08-30T07:02:03.474Z,19.80
2022-08-30T07:04:32.340Z,19.90
2022-08-30T07:07:00.821Z,19.90
2022-08-30T07:09:29.190Z,19.90
2022-08-30T07:12:02.400Z,20.00
2022-08-30T07:14:31.401Z,20.00
2022-08-30T07:17:00.441Z,20.10
2022-08-30T07:19:29.246Z,20.10
2022-08-30T07:21:57.818Z,20.10
2022-08-30T07:24:26.877Z,20.10
2022-08-30T07:26:55.547Z,20.10
2022-08-30T07:29:26.435Z,20.20
2022-08-30T07:31:55.791Z,20.20
2022-08-30T07:34:26.984Z,20.30
2022-08-30T07:36:56.421Z,20.20
2022-08-30T07:39:25.065Z,20.20
2022-08-30T07:41:53.282Z,20.30
2022-08-30T07:44:25.172Z,20.30
2022-08-30T07:46:53.985Z,20.40
2022-08-30T07:49:22.921Z,20.40
2022-08-30T07:51:52.502Z,20.50
2022-08-30T07:54:21.030Z,20.50
2022-08-30T07:56:49.727Z,20.40
2022-08-30T07:59:18.249Z,20.30
2022-08-30T08:01:50.894Z,20.30
2022-08-30T08:04:24.610Z,20.10
2022-08-30T08:06:53.043Z,20.10
2022-08-30T08:09:21.900Z,20.10
2022-08-30T08:11:51.402Z,20.30
2022-08-30T08:14:21.831Z,20.40
2022-08-30T08:16:50.574Z,20.50
2022-08-30T08:19:20.362Z,20.60
2022-08-30T08:21:59.375Z,20.70
2022-08-30T08:24:38.595Z,20.80
2022-08-30T08:27:06.977Z,20.90
2022-08-30T08:29:35.137Z,21.00
2022-08-30T08:32:04.335Z,21.00
2022-08-30T08:34:32.761Z,21.10
2022-08-30T08:37:01.278Z,21.20
2022-08-30T08:39:33.344Z,21.20
2022-08-30T08:42:14.294Z,21.30
2022-08-30T08:44:56.136Z,21.30
2022-08-30T08:47:41.963Z,21.30
2022-08-30T08:50:17.346Z,21.30
2022-08-30T08:53:05.688Z,21.30
2022-08-30T08:55:34.755Z,21.30
2022-08-30T08:58:03.245Z,21.30
2022-08-30T09:00:35.043Z,21.30
2022-08-30T09:03:05.253Z,21.30
2022-08-30T09:05:38.580Z,21.40
2022-08-30T09:08:16.869Z,21.40
2022-08-30T09:10:51.419Z,21.50
2022-08-30T09:13:22.692Z,21.50
2022-08-30T09:18:51.237Z,21.50
2022-08-30T09:21:25.643Z,21.50
2022-08-30T09:23:59.656Z,21.50
2022-08-30T09:26:30.192Z,21.50
2022-08-30T09:29:00.552Z,21.50
2022-08-30T09:31:33.777Z,21.50
2022-08-30T09:34:03.789Z,21.50
2022-08-30T09:36:42.368Z,21.50
2022-08-30T09:39:28.947Z,21.40
2022-08-30T09:42:13.423Z,21.40
2022-08-30T09:44:42.288Z,21.40
2022-08-30T09:47:23.910Z,21.50
2022-08-30T09:50:05.363Z,21.50
2022-08-30T09:52:58.626Z,21.50
2022-08-30T09:55:53.620Z,21.40
2022-08-30T09:59:00.951Z,21.30
2022-08-30T10:02:15.379Z,21.30
2022-08-30T10:04:58.303Z,21.10
2022-08-30T10:07:47.210Z,21.10
2022-08-30T10:10:39.380Z,21.10
2022-08-30T10:13:35.177Z,21.10
2022-08-30T10:16:09.554Z,21.10
2022-08-30T10:18:57.918Z,21.10
2022-08-30T10:21:33.216Z,21.20
2022-08-30T10:24:03.993Z,21.20
2022-08-30T10:27:05.195Z,21.20
2022-08-30T10:29:42.521Z,21.20
2022-08-30T10:32:32.775Z,21.30
2022-08-30T10:35:22.263Z,21.40
2022-08-30T10:38:11.153Z,21.50
2022-08-30T10:41:01.347Z,21.60
2022-08-30T10:43:59.590Z,21.70
2022-08-30T10:46:35.183Z,21.70
2022-08-30T10:49:04.268Z,21.70
2022-08-30T10:51:41.227Z,21.80
2022-08-30T10:54:09.844Z,21.90
2022-08-30T10:56:41.157Z,21.90
2022-08-30T10:59:11.937Z,22.00
2022-08-30T11:02:19.701Z,22.10
2022-08-30T11:04:48.462Z,22.10
2022-08-30T11:07:17.288Z,22.20
2022-08-30T11:09:53.815Z,22.20
2022-08-30T11:12:33.166Z,22.30
2022-08-30T11:15:33.657Z,22.30
2022-08-30T11:18:12.744Z,22.40
2022-08-30T11:20:54.191Z,22.50
2022-08-30T11:23:32.845Z,22.50
2022-08-30T11:26:15.941Z,22.40
2022-08-30T11:28:50.013Z,22.40
2022-08-30T11:31:18.843Z,22.50
2022-08-30T11:33:48.760Z,22.50
2022-08-30T11:36:37.033Z,22.50
2022-08-30T11:39:09.021Z,22.60
2022-08-30T11:41:43.123Z,22.60
2022-08-30T11:44:23.180Z,22.50
2022-08-30T11:46:55.549Z,22.50
2022-08-30T11:49:46.967Z,22.40
2022-08-30T11:52:29.013Z,22.40
2022-08-30T11:55:04.644Z,22.30
2022-08-30T11:57:45.974Z,22.30
2022-08-30T12:00:34.705Z,22.20
2022-08-30T12:03:09.227Z,22.30
2022-08-30T12:05:48.966Z,22.30
2022-08-30T12:08:28.024Z,22.40
2022-08-30T12:10:59.772Z,22.30
2022-08-30T12:13:41.494Z,22.30
2022-08-30T12:16:15.220Z,22.20
2022-08-30T12:18:46.811Z,22.20
2022-08-30T12:21:18.154Z,22.20
2022-08-30T12:23:47.447Z,22.20
2022-08-30T12:26:25.738Z,22.30
2022-08-30T12:29:09.479Z,22.30
2022-08-30T12:31:44.244Z,22.20
2022-08-30T12:34:39.990Z,22.00
2022-08-30T12:37:24.039Z,21.90
2022-08-30T12:40:13.040Z,21.80
2022-08-30T12:43:05.251Z,21.60
2022-08-30T12:45:39.909Z,21.60
2022-08-30T12:48:19.816Z,21.50
2022-08-30T12:50:54.445Z,21.60
2022-08-30T12:53:34.932Z,21.60
2022-08-30T12:56:06.226Z,21.70
2022-08-30T12:58:48.078Z,21.80
2022-08-30T13:01:28.862Z,21.80
2022-08-30T13:04:14.023Z,21.90
2022-08-30T13:06:58.603Z,21.90
2022-08-30T13:09:39.550Z,21.90
2022-08-30T13:12:11.090Z,21.80
2022-08-30T13:14:42.209Z,21.70
2022-08-30T13:17:13.353Z,21.70
2022-08-30T13:19:44.614Z,21.70
2022-08-30T13:22:31.552Z,21.60
2022-08-30T13:25:01.746Z,21.50
2022-08-30T13:27:31.850Z,21.50
2022-08-30T13:30:13.490Z,21.40
2022-08-30T13:32:44.001Z,21.40
2022-08-30T13:35:13.749Z,21.30
2022-08-30T13:37:49.695Z,21.20
2022-08-30T13:40:22.033Z,21.10
2022-08-30T13:42:51.640Z,21.10
2022-08-30T13:48:17.422Z,21.00
2022-08-30T13:50:58.120Z,20.80
2022-08-30T13:56:20.463Z,20.70
2022-08-30T13:58:52.339Z,20.70
2022-08-30T14:01:22.257Z,20.60
2022-08-30T14:09:32.669Z,20.60
2022-08-30T14:12:01.734Z,20.60
2022-08-30T14:14:42.667Z,20.60
2022-08-30T14:17:15.363Z,20.60
2022-08-30T14:19:44.369Z,20.70
2022-08-30T14:22:13.191Z,20.70
2022-08-30T14:24:42.797Z,20.70
2022-08-30T14:27:11.650Z,20.70
2022-08-30T14:29:42.100Z,20.60
2022-08-30T14:32:13.664Z,20.60
2022-08-30T14:34:42.840Z,20.60
2022-08-30T14:37:12.088Z,20.50
2022-08-30T14:39:42.001Z,20.50
2022-08-30T14:42:18.754Z,20.40
2022-08-30T14:44:56.154Z,20.40
2022-08-30T14:47:29.849Z,20.30
2022-08-30T14:50:01.491Z,20.20
2022-08-30T14:52:30.822Z,20.20
2022-08-30T14:55:08.718Z,20.10
2022-08-30T14:57:39.410Z,20.00
2022-08-30T15:00:09.962Z,20.00
2022-08-30T15:02:39.913Z,20.00
2022-08-30T15:05:08.541Z,20.00
2022-08-30T15:07:38.049Z,20.00
2022-08-30T15:10:08.107Z,20.10
2022-08-30T15:12:37.950Z,20.10
2022-08-30T15:15:08.376Z,20.10
2022-08-30T15:17:37.654Z,20.10
2022-08-30T15:20:10.553Z,20.10
2022-08-30T15:22:41.295Z,20.10
2022-08-30T15:25:15.332Z,20.10
2022-08-30T15:27:44.676Z,20.00
2022-08-30T15:30:13.520Z,20.00
2022-08-30T15:32:43.010Z,19.90
2022-08-30T15:35:15.727Z,19.80
2022-08-30T15:37:48.513Z,19.80
2022-08-30T15:40:18.017Z,19.80
2022-08-30T15:42:47.974Z,19.90
2022-08-30T15:45:23.233Z,19.80
2022-08-30T15:47:55.351Z,19.80
2022-08-30T15:50:24.069Z,19.70
2022-08-30T15:52:55.716Z,19.70
2022-08-30T15:55:24.591Z,19.70
2022-08-30T15:57:58.283Z,19.70
2022-08-30T16:00:27.462Z,19.70
2022-08-30T16:02:58.958Z,19.80
2022-08-30T16:05:30.063Z,19.80
2022-08-30T16:07:58.982Z,19.80
2022-08-30T16:10:29.558Z,19.70
2022-08-30T16:13:02.923Z,19.70
2022-08-30T16:15:35.054Z,19.70
2022-08-30T16:18:04.510Z,19.70
2022-08-30T16:20:33.302Z,19.70
2022-08-30T16:23:02.231Z,19.70
2022-08-30T16:25:40.728Z,19.70
2022-08-30T16:28:10.114Z,19.70
2022-08-30T16:30:39.246Z,19.80
2022-08-30T16:33:08.651Z,19.80
2022-08-30T16:35:37.196Z,19.70
2022-08-30T16:38:07.172Z,19.80
2022-08-30T16:40:37.769Z,19.80
2022-08-30T16:43:06.316Z,19.80
2022-08-30T16:45:40.600Z,19.80
2022-08-30T16:48:10.226Z,19.70
2022-08-30T16:50:42.417Z,19.70
2022-08-30T16:53:11.707Z,19.70
2022-08-30T16:55:45.460Z,19.70
2022-08-30T16:58:18.949Z,19.70
2022-08-30T17:00:49.664Z,19.70
2022-08-30T17:03:19.047Z,19.70
2022-08-30T17:05:52.546Z,19.70
2022-08-30T17:08:35.339Z,19.60
2022-08-30T17:11:04.397Z,19.60
2022-08-30T17:13:35.929Z,19.60
2022-08-30T17:16:04.829Z,19.60
2022-08-30T17:18:35.694Z,19.50
2022-08-30T17:21:05.776Z,19.60
2022-08-30T17:23:39.176Z,19.60
2022-08-30T17:26:07.390Z,19.60
2022-08-30T17:28:37.192Z,19.60
2022-08-30T17:31:06.153Z,19.50
2022-08-30T17:33:39.160Z,19.50
2022-08-30T17:36:08.255Z,19.50
2022-08-30T17:38:37.335Z,19.50
2022-08-30T17:41:14.398Z,19.40
2022-08-30T17:43:46.056Z,19.30
2022-08-30T17:46:20.126Z,19.30
2022-08-30T17:48:57.876Z,19.30
2022-08-30T17:51:30.732Z,19.20
2022-08-30T17:54:00.290Z,19.20
2022-08-30T17:56:34.264Z,19.20
2022-08-30T17:59:06.614Z,19.20
2022-08-30T18:01:35.557Z,19.20
2022-08-30T18:04:06.126Z,19.10
2022-08-30T18:06:35.752Z,19.00
2022-08-30T18:09:06.602Z,19.00
2022-08-30T18:11:40.637Z,18.90
2022-08-30T18:14:11.538Z,18.80
2022-08-30T18:16:53.126Z,18.90
2022-08-30T18:19:27.175Z,18.80
2022-08-30T18:21:55.842Z,18.70
2022-08-30T18:24:25.183Z,18.60
2022-08-30T18:26:55.318Z,18.60
2022-08-30T18:29:30.159Z,18.50
2022-08-30T18:32:01.348Z,18.40
2022-08-30T18:34:30.855Z,18.40
2022-08-30T18:36:59.320Z,18.30
2022-08-30T18:39:34.439Z,18.20
2022-08-30T18:42:04.621Z,18.10
2022-08-30T18:44:36.633Z,18.10
2022-08-30T18:49:54.781Z,18.00
2022-08-30T18:52:23.616Z,18.00
2022-08-30T18:54:53.107Z,18.00
2022-08-30T18:57:22.602Z,18.00
2022-08-30T18:59:51.559Z,18.00
2022-08-30T19:02:20.884Z,18.00
2022-08-30T19:04:56.561Z,18.00
2022-08-30T19:07:34.392Z,18.00
2022-08-30T19:10:06.637Z,17.90
2022-08-30T19:12:35.616Z,17.90
2022-08-30T19:15:10.967Z,17.90
2022-08-30T19:17:43.089Z,17.80
2022-08-30T19:20:15.030Z,17.80
2022-08-30T19:23:09.112Z,17.70
2022-08-30T19:25:36.133Z,17.60
2022-08-30T19:28:09.779Z,17.50
2022-08-30T19:30:39.256Z,17.40
2022-08-30T19:33:09.077Z,17.40
2022-08-30T19:35:42.187Z,17.30
2022-08-30T19:38:14.741Z,17.20
2022-08-30T19:40:44.479Z,17.20
2022-08-30T19:43:13.783Z,17.20
2022-08-30T19:45:44.814Z,17.10
2022-08-30T19:48:13.694Z,17.10
2022-08-30T19:50:44.695Z,17.10
2022-08-30T19:53:15.205Z,17.10
2022-08-30T19:55:43.674Z,17.00
2022-08-30T19:58:16.426Z,17.00
2022-08-30T20:00:52.949Z,16.90
2022-08-30T20:03:30.055Z,16.80
2022-08-30T20:05:59.399Z,16.80
2022-08-30T20:08:31.511Z,16.80
2022-08-30T20:11:04.858Z,16.80
2022-08-30T20:13:35.344Z,16.70
2022-08-30T20:16:04.065Z,16.60
2022-08-30T20:18:39.957Z,16.60
2022-08-30T20:21:15.926Z,16.60
2022-08-30T20:23:45.208Z,16.60
2022-08-30T20:24:29.506Z,18.10
2022-08-30T20:26:17.118Z,16.50
2022-08-30T20:28:45.920Z,16.50
2022-08-30T20:31:14.888Z,16.50
2022-08-30T20:33:46.920Z,16.50
2022-08-30T20:36:15.505Z,16.50
2022-08-30T20:38:50.627Z,16.40
2022-08-30T20:41:20.749Z,16.40
2022-08-30T20:43:53.446Z,16.30
2022-08-30T20:46:23.588Z,16.30
2022-08-30T20:48:53.496Z,16.30
2022-08-30T20:51:23.667Z,16.20
2022-08-30T20:53:54.057Z,16.10
2022-08-30T20:56:26.155Z,16.10
2022-08-30T20:58:58.027Z,16.00
2022-08-30T21:01:28.152Z,15.90
2022-08-30T21:03:57.484Z,15.80
2022-08-30T21:06:28.738Z,15.80
2022-08-30T21:08:57.833Z,15.70
2022-08-30T21:11:28.886Z,15.60
2022-08-30T21:13:57.878Z,15.60
2022-08-30T21:16:28.939Z,15.60
2022-08-30T21:18:58.703Z,15.50
2022-08-30T21:21:28.544Z,15.50
2022-08-30T21:24:02.641Z,15.40
2022-08-30T21:26:32.432Z,15.40
2022-08-30T21:29:07.502Z,15.40
2022-08-30T21:31:38.425Z,15.40
2022-08-30T21:34:08.799Z,15.40
2022-08-30T21:36:48.022Z,15.30
2022-08-30T21:39:19.960Z,15.30
2022-08-30T21:41:50.340Z,15.30
2022-08-30T21:44:20.924Z,15.30
2022-08-30T21:47:00.669Z,15.30
2022-08-30T21:49:29.398Z,15.20
2022-08-30T21:51:59.199Z,15.20
2022-08-30T21:54:33.942Z,15.20
2022-08-30T21:57:05.472Z,15.20
2022-08-30T21:59:41.404Z,15.10
2022-08-30T22:02:12.780Z,15.10
2022-08-30T22:04:42.800Z,15.10
2022-08-30T22:07:13.538Z,15.10
2022-08-30T22:09:44.601Z,15.10
2022-08-30T22:12:13.704Z,15.10
2022-08-30T22:14:42.957Z,15.10
2022-08-30T22:17:17.162Z,15.00
2022-08-30T22:19:47.267Z,15.10
2022-08-30T22:22:18.273Z,15.10
2022-08-30T22:24:49.889Z,15.00
2022-08-30T22:27:19.019Z,15.00
2022-08-30T22:29:47.949Z,15.00
2022-08-30T22:32:16.969Z,15.00
2022-08-30T22:34:46.770Z,15.00
2022-08-30T22:37:16.484Z,15.00
2022-08-30T22:39:45.040Z,15.00
2022-08-30T22:42:14.284Z,15.00
2022-08-30T22:44:43.159Z,15.00
2022-08-30T22:47:12.238Z,14.90
2022-08-30T22:49:41.529Z,14.90
2022-08-30T22:52:11.231Z,14.90
2022-08-30T22:54:40.438Z,14.90
2022-08-30T22:57:10.876Z,14.90
2022-08-30T22:59:39.387Z,14.80
2022-08-30T23:02:08.469Z,14.80
2022-08-30T23:04:38.647Z,14.80
2022-08-30T23:07:10.542Z,14.80
2022-08-30T23:09:40.004Z,14.80
2022-08-30T23:12:08.780Z,14.80
2022-08-30T23:14:43.551Z,14.80
2022-08-30T23:17:17.956Z,14.80
2022-08-30T23:19:47.966Z,14.80
2022-08-30T23:22:19.756Z,14.80
2022-08-30T23:25:12.614Z,14.80
2022-08-30T23:28:05.128Z,14.80
2022-08-30T23:30:52.916Z,14.80
2022-08-30T23:33:40.150Z,14.80
2022-08-30T23:36:29.231Z,14.70
2022-08-30T23:39:17.905Z,14.70
2022-08-30T23:42:05.861Z,14.70
2022-08-30T23:44:53.928Z,14.70
2022-08-30T23:47:42.741Z,14.70
2022-08-30T23:50:30.221Z,14.60
2022-08-30T23:53:18.899Z,14.60
2022-08-30T23:56:09.056Z,14.50
2022-08-30T23:59:02.280Z,14.50
